Time;durP1;ratioP1;P1;durP2;ratioP2;P2;SDS_P1;SDS_P2;PMS_P1;PMS_P2;Temp;Humidity;BMP_temperature;BMP_pressure;BME280_temperature;BME280_humidity;BME280_pressure;Samples;Min_cycle;Max_cycle;Signal;HPM_P1;HPM_P2
2021/01/26 00:00:13;;;;;;;2.17;1.40;;;;;;;9.47;45.54;93470.13;5095317;28;20448;-80
2021/01/26 00:02:39;;;;;;;3.57;1.50;;;;;;;9.54;45.57;93456.25;5095056;28;20452;-82
2021/01/26 00:05:07;;;;;;;4.03;2.20;;;;;;;9.60;45.71;93475.75;5095248;28;20492;-81
2021/01/26 00:07:33;;;;;;;1.93;1.70;;;;;;;9.61;45.66;93472.13;5095051;28;20444;-81
2021/01/26 00:10:01;;;;;;;13.83;4.90;;;;;;;9.49;45.32;93476.84;5094923;28;20851;-81
2021/01/26 00:12:27;;;;;;;2.37;1.97;;;;;;;9.53;45.75;93477.34;5094884;28;20588;-82
2021/01/26 00:14:54;;;;;;;3.20;2.10;;;;;;;9.32;45.77;93465.50;5094919;28;20913;-82
2021/01/26 00:17:20;;;;;;;2.37;1.77;;;;;;;9.37;46.09;93479.91;5094609;28;20449;-80
2021/01/26 00:40:58;;;;;;;5.97;2.40;;;;;;;9.47;45.80;93464.88;5135113;27;20533;-80
2021/01/26 00:43:24;;;;;;;3.00;1.60;;;;;;;9.53;45.12;93446.72;5134673;27;20447;-80
2021/01/26 00:45:51;;;;;;;3.23;2.00;;;;;;;9.57;44.33;93455.13;5134127;27;20447;-81
2021/01/26 00:48:17;;;;;;;2.90;1.37;;;;;;;9.53;44.17;93456.38;5133747;28;20435;-81
2021/01/26 00:50:44;;;;;;;1.40;1.30;;;;;;;9.49;44.93;93447.22;5063713;28;20436;-81
2021/01/26 00:53:11;;;;;;;2.60;1.57;;;;;;;9.48;45.54;93429.84;5133654;27;20446;-80
2021/01/26 00:55:38;;;;;;;2.13;1.67;;;;;;;9.42;45.53;93420.03;5131788;28;20496;-81
2021/01/26 00:58:05;;;;;;;2.53;2.13;;;;;;;9.52;46.36;93442.47;5131960;28;20497;-79
2021/01/26 01:00:34;;;;;;;3.83;2.37;;;;;;;9.56;46.74;93454.28;5131912;28;20509;-80
2021/01/26 01:03:01;;;;;;;2.50;1.53;;;;;;;9.51;45.09;93419.88;5131784;28;20443;-80
2021/01/26 01:05:27;;;;;;;3.53;3.03;;;;;;;9.51;46.23;93421.69;5131710;28;20440;-79
2021/01/26 01:07:54;;;;;;;6.17;2.27;;;;;;;9.46;46.06;93421.34;5131761;28;20497;-80
2021/01/26 01:10:23;;;;;;;3.23;1.70;;;;;;;9.37;45.04;93412.66;5132112;28;20834;-79
2021/01/26 01:12:50;;;;;;;4.97;2.90;;;;;;;9.49;46.01;93415.78;5132299;28;20450;-80
2021/01/26 01:15:18;;;;;;;3.90;2.30;;;;;;;9.54;45.55;93421.38;5131944;28;20444;-80
2021/01/26 01:17:45;;;;;;;2.43;2.23;;;;;;;9.60;46.94;93418.94;5132062;28;20430;-81
2021/01/26 01:20:13;;;;;;;9.00;4.43;;;;;;;9.53;47.49;93407.44;5132165;27;20452;-80
2021/01/26 01:22:40;;;;;;;11.53;5.30;;;;;;;9.46;48.47;93414.31;5131955;28;20439;-80
2021/01/26 01:25:07;;;;;;;2.97;1.80;;;;;;;8.98;47.07;93412.34;5131479;28;20447;-80
2021/01/26 01:27:33;;;;;;;6.20;3.50;;;;;;;9.09;48.71;93409.44;5131278;27;20529;-80
2021/01/26 01:30:00;;;;;;;10.33;4.50;;;;;;;9.15;48.88;93406.19;5131575;28;20487;-79
2021/01/26 01:32:27;;;;;;;11.00;5.27;;;;;;;9.13;50.00;93395.06;5131278;28;20453;-79
2021/01/26 01:34:53;;;;;;;5.90;4.27;;;;;;;9.06;50.36;93396.69;5131360;28;20436;-79
2021/01/26 01:37:20;;;;;;;10.50;5.73;;;;;;;8.78;50.53;93379.56;5131392;27;20454;-79
2021/01/26 01:39:46;;;;;;;7.37;4.43;;;;;;;8.62;50.63;93396.78;5130415;27;21050;-79
2021/01/26 01:42:13;;;;;;;14.13;4.70;;;;;;;8.69;51.15;93410.91;5117318;28;20436;-80
2021/01/26 01:44:40;;;;;;;10.33;5.43;;;;;;;8.68;51.84;93398.81;5117824;28;20454;-80
2021/01/26 01:47:11;;;;;;;9.40;4.70;;;;;;;8.64;51.83;93397.44;5117693;28;20492;-79
2021/01/26 01:49:44;;;;;;;12.73;5.60;;;;;;;8.61;51.94;93395.16;5117606;28;20483;-79
2021/01/26 01:52:16;;;;;;;13.30;4.97;;;;;;;8.60;51.87;93396.13;5117707;28;20462;-80
2021/01/26 01:54:47;;;;;;;10.50;5.17;;;;;;;8.59;51.93;93402.34;5117321;28;20440;-80
2021/01/26 01:57:21;;;;;;;25.43;9.90;;;;;;;8.59;52.45;93398.91;5117533;28;20770;-79
2021/01/26 01:59:55;;;;;;;21.00;9.30;;;;;;;8.58;52.87;93392.84;5116709;28;20813;-80
2021/01/26 02:02:22;;;;;;;12.03;5.70;;;;;;;8.51;52.02;93384.00;5081184;28;20445;-79
2021/01/26 02:04:50;;;;;;;8.60;4.17;;;;;;;8.40;51.46;93381.66;5116962;28;20439;-79
2021/01/26 02:07:17;;;;;;;10.40;4.53;;;;;;;8.48;52.09;93388.72;5116770;28;20439;-79
2021/01/26 02:09:44;;;;;;;7.90;4.27;;;;;;;8.58;52.77;93390.22;5116819;28;21011;-80
2021/01/26 02:12:13;;;;;;;9.30;4.23;;;;;;;8.61;52.93;93384.69;5117092;28;20444;-80
2021/01/26 02:14:42;;;;;;;8.17;4.43;;;;;;;8.58;52.90;93376.34;5117413;28;20444;-79
2021/01/26 02:17:23;;;;;;;12.73;4.33;;;;;;;8.50;52.95;93358.81;5117308;28;20807;-80
2021/01/26 02:20:31;;;;;;;4.60;3.20;;;;;;;8.31;52.29;93345.94;5116976;28;20974;-79
2021/01/26 02:23:34;;;;;;;4.23;2.63;;;;;;;8.21;52.49;93355.69;5117294;28;20447;-80
2021/01/26 02:26:49;;;;;;;4.20;2.60;;;;;;;8.38;52.46;93373.97;5116895;28;20860;-79
2021/01/26 02:29:21;;;;;;;3.80;2.70;;;;;;;8.49;52.99;93348.53;5053885;28;20596;-80
2021/01/26 02:32:04;;;;;;;11.33;4.80;;;;;;;8.52;53.32;93374.34;5053999;28;20453;-80
2021/01/26 02:35:06;;;;;;;7.97;4.13;;;;;;;8.52;54.07;93358.66;5056214;28;21071;-79
2021/01/26 02:38:24;;;;;;;9.37;5.03;;;;;;;8.42;54.37;93369.25;5056508;28;20546;-80
2021/01/26 02:41:00;;;;;;;3.97;2.43;;;;;;;8.02;54.07;93360.13;5053480;28;20473;-79
2021/01/26 02:43:49;;;;;;;5.20;3.07;;;;;;;8.13;54.56;93355.63;5053183;28;20525;-80
2021/01/26 02:46:28;;;;;;;6.50;3.30;;;;;;;8.11;54.76;93341.91;5014035;28;20960;-80
2021/01/26 02:49:06;;;;;;;5.60;3.07;;;;;;;8.10;54.81;93348.09;5013913;28;20492;-79
2021/01/26 02:51:55;;;;;;;2.80;2.60;;;;;;;8.11;55.17;93355.78;5013358;28;20480;-80
2021/01/26 02:54:28;;;;;;;3.97;2.90;;;;;;;8.03;55.52;93346.09;5013437;28;20525;-79
2021/01/26 02:57:02;;;;;;;3.07;2.50;;;;;;;8.12;55.27;93351.38;5013850;28;20860;-80
2021/01/26 02:59:38;;;;;;;6.53;3.23;;;;;;;8.11;54.77;93363.63;5013904;28;20517;-79
2021/01/26 03:02:09;;;;;;;2.97;2.67;;;;;;;8.11;55.36;93365.41;5013684;28;20810;-80
2021/01/26 03:04:46;;;;;;;2.50;2.30;;;;;;;7.95;55.96;93343.41;5053057;28;20445;-80
2021/01/26 03:07:15;;;;;;;2.43;2.23;;;;;;;8.04;55.22;93349.50;5052940;28;20468;-80
2021/01/26 03:09:45;;;;;;;3.63;3.27;;;;;;;8.12;56.08;93346.16;5020310;28;20513;-80
2021/01/26 03:12:17;;;;;;;9.10;4.03;;;;;;;8.13;55.36;93342.56;5052857;28;20793;-80
2021/01/26 03:14:46;;;;;;;8.20;4.47;;;;;;;8.13;56.22;93353.03;5052913;28;20461;-79
2021/01/26 03:17:18;;;;;;;8.83;5.20;;;;;;;8.11;56.33;93355.78;5052836;28;20868;-80
2021/01/26 03:19:50;;;;;;;11.43;4.70;;;;;;;8.03;56.17;93347.88;5053454;28;20445;-80
2021/01/26 03:22:20;;;;;;;4.70;3.60;;;;;;;8.06;56.34;93342.34;5057860;28;20990;-80
2021/01/26 03:24:52;;;;;;;7.10;4.30;;;;;;;8.12;55.79;93340.94;5063489;28;20441;-79
2021/01/26 03:27:24;;;;;;;4.00;3.50;;;;;;;8.20;56.19;93356.66;5115677;28;20443;-79
2021/01/26 03:29:54;;;;;;;4.97;3.20;;;;;;;8.27;56.66;93365.50;5115742;28;20493;-80
2021/01/26 03:32:26;;;;;;;5.20;3.90;;;;;;;8.22;56.58;93355.53;5115673;28;20444;-80
2021/01/26 03:34:53;;;;;;;6.20;4.20;;;;;;;8.12;56.81;93361.84;5115625;28;20446;-79
2021/01/26 03:37:20;;;;;;;5.37;4.60;;;;;;;8.14;57.29;93367.72;5115140;28;20939;-80
2021/01/26 03:39:46;;;;;;;12.80;6.87;;;;;;;8.14;57.93;93367.72;5115311;28;20478;-80
2021/01/26 03:42:13;;;;;;;4.30;3.90;;;;;;;8.03;56.79;93384.44;5115187;28;20441;-80
2021/01/26 03:44:41;;;;;;;11.37;2.70;;;;;;;8.03;56.22;93385.25;5062725;28;20476;-80
2021/01/26 03:47:24;;;;;;;5.50;2.83;;;;;;;8.02;56.15;93373.19;5114851;28;20446;-80
2021/01/26 03:50:13;;;;;;;5.10;3.90;;;;;;;8.03;56.61;93369.59;5115264;28;20486;-80
2021/01/26 03:52:55;;;;;;;8.47;3.97;;;;;;;7.96;56.43;93362.53;5052494;28;20476;-80
2021/01/26 03:55:28;;;;;;;5.43;2.80;;;;;;;7.76;56.96;93378.34;5052550;28;20451;-79
2021/01/26 03:58:09;;;;;;;6.27;3.77;;;;;;;7.51;59.01;93354.78;5052577;28;20442;-80
2021/01/26 04:00:42;;;;;;;3.40;3.10;;;;;;;7.31;59.68;93362.78;5052453;28;20448;-80
2021/01/26 04:03:22;;;;;;;8.70;4.00;;;;;;;7.51;59.32;93379.09;5052302;28;20449;-80
2021/01/26 04:05:55;;;;;;;7.57;4.47;;;;;;;7.61;58.90;93352.94;5052393;28;20438;-79
2021/01/26 04:08:32;;;;;;;6.30;3.63;;;;;;;7.68;58.60;93348.75;5052256;28;20449;-80
2021/01/26 04:11:05;;;;;;;6.10;3.90;;;;;;;7.69;57.93;93351.22;5052016;28;20453;-80
2021/01/26 04:13:40;;;;;;;6.00;3.77;;;;;;;7.79;57.83;93361.56;5052138;28;20441;-80
2021/01/26 04:16:08;;;;;;;11.03;6.30;;;;;;;7.43;59.35;93348.53;5051975;28;20448;-79
2021/01/26 04:18:39;;;;;;;8.07;4.27;;;;;;;7.56;59.45;93368.25;5051937;28;20441;-79
2021/01/26 04:21:08;;;;;;;5.23;4.73;;;;;;;7.64;59.85;93373.53;5051807;28;20487;-79
2021/01/26 04:23:34;;;;;;;9.30;4.50;;;;;;;7.68;59.58;93356.59;5051932;28;20477;-80
2021/01/26 04:26:07;;;;;;;9.70;4.17;;;;;;;7.68;59.19;93374.88;5052147;28;20461;-79
2021/01/26 04:28:39;;;;;;;16.73;7.50;;;;;;;7.75;59.43;93386.34;5053638;28;20457;-79
2021/01/26 04:31:08;;;;;;;12.63;7.40;;;;;;;7.68;58.76;93374.88;5114592;28;20460;-79
2021/01/26 04:33:34;;;;;;;12.17;7.90;;;;;;;7.70;59.34;93378.13;5115129;28;20434;-80
2021/01/26 04:36:01;;;;;;;10.03;5.47;;;;;;;7.68;60.14;93369.63;5114887;28;20454;-80
2021/01/26 04:38:27;;;;;;;11.23;5.80;;;;;;;7.65;59.80;93364.72;5115119;28;20834;-79
2021/01/26 04:40:55;;;;;;;21.80;7.53;;;;;;;7.66;59.51;93364.56;5115010;28;20474;-79
2021/01/26 04:43:30;;;;;;;10.60;6.40;;;;;;;7.73;60.18;93383.88;5114536;28;20445;-79
2021/01/26 04:46:05;;;;;;;10.00;6.40;;;;;;;7.77;59.94;93381.78;5114400;28;20446;-79
2021/01/26 04:48:41;;;;;;;10.50;6.67;;;;;;;7.74;59.08;93389.91;5114017;28;20440;-80
2021/01/26 04:51:18;;;;;;;8.43;6.33;;;;;;;7.77;60.00;93392.22;5114028;28;20450;-79
2021/01/26 04:54:05;;;;;;;32.17;7.37;;;;;;;7.77;59.72;93390.44;5114350;28;20478;-80
2021/01/26 04:56:40;;;;;;;11.63;7.60;;;;;;;7.75;59.72;93396.78;5114244;28;20452;-79
2021/01/26 04:59:23;;;;;;;14.00;9.20;;;;;;;7.71;60.59;93390.22;5114471;28;20941;-80
2021/01/26 05:02:15;;;;;;;11.73;6.77;;;;;;;7.58;60.52;93395.84;5114940;28;20446;-79
2021/01/26 05:04:46;;;;;;;12.23;7.57;;;;;;;7.38;60.25;93384.69;5114665;28;20442;-80
2021/01/26 05:07:16;;;;;;;13.77;7.93;;;;;;;7.21;61.67;93405.53;5114954;28;20438;-80
2021/01/26 05:09:50;;;;;;;12.03;7.07;;;;;;;7.32;61.71;93421.81;5114569;28;20531;-79
2021/01/26 05:12:19;;;;;;;12.80;8.03;;;;;;;7.34;61.65;93399.00;5114575;28;20440;-80
2021/01/26 05:14:51;;;;;;;16.80;8.20;;;;;;;7.37;61.48;93403.13;5114115;28;20442;-80
2021/01/26 05:17:22;;;;;;;17.17;9.17;;;;;;;7.38;61.59;93425.63;5117555;28;20512;-80
2021/01/26 05:19:58;;;;;;;13.53;8.70;;;;;;;7.39;61.34;93433.31;5082153;28;20495;-80
2021/01/26 05:22:31;;;;;;;13.77;9.67;;;;;;;7.12;62.04;93417.69;5117991;28;20438;-80
2021/01/26 05:25:04;;;;;;;22.07;13.40;;;;;;;6.91;62.69;93438.75;5118007;28;20517;-80
2021/01/26 05:27:31;;;;;;;20.03;10.10;;;;;;;6.96;63.20;93426.16;5118108;28;20507;-80
2021/01/26 05:29:58;;;;;;;17.87;9.93;;;;;;;6.84;63.44;93438.53;5117633;28;20485;-80
2021/01/26 05:32:25;;;;;;;25.20;12.93;;;;;;;6.94;63.64;93459.38;5118267;28;20869;-79
2021/01/26 05:34:54;;;;;;;18.13;12.33;;;;;;;6.89;64.06;93450.31;5118438;28;20443;-79
2021/01/26 05:37:21;;;;;;;20.60;12.00;;;;;;;6.97;64.37;93463.47;5118381;28;20452;-79
2021/01/26 05:39:53;;;;;;;30.90;13.70;;;;;;;6.98;64.25;93442.47;5117912;28;20531;-80
2021/01/26 05:42:21;;;;;;;22.07;11.93;;;;;;;7.03;63.61;93445.47;5118274;28;20482;-80
2021/01/26 05:44:51;;;;;;;18.53;12.07;;;;;;;6.98;64.51;93444.25;5117984;28;20447;-79
2021/01/26 05:47:24;;;;;;;24.33;13.13;;;;;;;7.01;64.23;93444.78;5117721;28;20449;-80
2021/01/26 05:49:52;;;;;;;27.53;15.20;;;;;;;7.07;64.92;93454.63;5098679;28;20475;-80
2021/01/26 05:52:21;;;;;;;34.57;15.53;;;;;;;7.12;65.17;93462.00;5117337;28;20449;-80
2021/01/26 05:54:51;;;;;;;39.00;18.93;;;;;;;7.16;64.49;93458.16;5118136;28;20952;-79
2021/01/26 05:57:28;;;;;;;41.37;21.50;;;;;;;7.15;64.45;93470.38;5118007;28;20455;-80
2021/01/26 06:00:13;;;;;;;39.00;21.20;;;;;;;7.17;64.74;93472.84;5118913;28;20450;-79
2021/01/26 06:02:40;;;;;;;28.40;17.77;;;;;;;7.18;65.77;93471.88;5081309;28;20487;-80
2021/01/26 06:05:10;;;;;;;32.90;17.47;;;;;;;7.19;67.99;93454.44;5117747;28;20438;-80
2021/01/26 06:07:37;;;;;;;32.83;16.23;;;;;;;7.20;68.59;93476.94;5082170;28;20449;-80
2021/01/26 06:10:17;;;;;;;36.90;19.53;;;;;;;7.19;69.50;93483.94;5117101;28;20579;-79
2021/01/26 06:12:52;;;;;;;29.30;16.57;;;;;;;7.19;70.12;93478.72;5117180;28;20442;-80
2021/01/26 06:15:22;;;;;;;22.20;12.57;;;;;;;7.17;70.75;93485.88;5117319;28;20584;-80
2021/01/26 06:17:50;;;;;;;27.27;16.17;;;;;;;7.26;71.69;93505.09;5117715;28;20515;-80
2021/01/26 06:20:21;;;;;;;22.00;14.50;;;;;;;7.29;71.77;93496.97;5117437;28;20929;-80
2021/01/26 06:22:49;;;;;;;19.13;10.30;;;;;;;7.33;72.13;93498.31;5116940;28;20442;-80
2021/01/26 06:25:23;;;;;;;16.77;8.60;;;;;;;7.24;72.66;93500.00;5116411;28;20442;-80
2021/01/26 06:27:53;;;;;;;10.10;7.47;;;;;;;7.27;72.76;93522.38;5116482;28;20460;-79
2021/01/26 06:30:34;;;;;;;16.93;9.47;;;;;;;7.29;73.94;93525.66;5116429;28;20494;-80
2021/01/26 06:33:38;;;;;;;26.07;14.63;;;;;;;7.31;73.46;93528.94;5116780;28;20438;-80
2021/01/26 06:36:33;;;;;;;18.43;8.50;;;;;;;7.33;73.95;93533.06;5118892;28;20929;-79
2021/01/26 06:39:17;;;;;;;22.40;13.53;;;;;;;7.33;74.17;93546.09;5054946;28;20473;-79
2021/01/26 06:42:05;;;;;;;12.70;8.57;;;;;;;7.30;73.75;93556.00;5054565;28;20445;-80
2021/01/26 06:44:44;;;;;;;19.53;8.37;;;;;;;7.27;74.53;93558.91;5054443;28;20433;-80
2021/01/26 06:47:30;;;;;;;13.97;6.63;;;;;;;7.21;75.57;93557.66;5054259;28;20460;-79
2021/01/26 06:50:04;;;;;;;5.83;4.50;;;;;;;7.13;77.28;93552.34;5054254;28;20849;-79
2021/01/26 06:52:54;;;;;;;8.93;5.43;;;;;;;7.10;78.40;93563.06;5053813;28;20448;-79
2021/01/26 06:55:55;;;;;;;5.80;3.43;;;;;;;7.03;80.02;93557.59;5054697;28;20445;-79
2021/01/26 06:58:49;;;;;;;9.73;5.80;;;;;;;6.97;80.88;93576.44;4991785;28;20458;-80
2021/01/26 07:01:41;;;;;;;7.47;4.70;;;;;;;6.98;81.20;93579.84;4978197;28;20545;-79
2021/01/26 07:04:35;;;;;;;5.73;3.80;;;;;;;6.93;81.74;93593.28;4994244;28;20451;-79
2021/01/26 07:08:01;;;;;;;7.23;3.40;;;;;;;6.81;83.15;93608.28;4993984;28;20444;-79
2021/01/26 07:10:39;;;;;;;7.27;4.97;;;;;;;6.72;84.16;93616.94;4935959;29;20493;-79
2021/01/26 07:13:30;;;;;;;5.43;4.50;;;;;;;6.65;86.06;93613.25;4888611;29;20940;-80
2021/01/26 07:16:23;;;;;;;6.00;4.70;;;;;;;6.51;87.32;93608.44;4951132;28;20457;-79
2021/01/26 07:40:24;;;;;;;3.83;3.50;;;;;;;5.52;95.59;93662.19;5110652;27;20529;-76
2021/01/26 07:42:59;;;;;;;2.90;2.67;;;;;;;5.32;94.91;93665.63;5110492;28;20443;-75
2021/01/26 07:45:31;;;;;;;1.93;1.73;;;;;;;5.00;94.29;93663.13;5110883;28;20438;-76
2021/01/26 07:48:06;;;;;;;2.20;2.10;;;;;;;4.89;95.17;93684.78;5110643;28;20478;-76
2021/01/26 07:50:38;;;;;;;3.63;3.27;;;;;;;4.82;95.68;93677.63;5110432;28;20496;-76
2021/01/26 07:53:15;;;;;;;3.20;2.90;;;;;;;4.44;95.35;93685.94;5110278;28;20478;-75
2021/01/26 07:55:48;;;;;;;3.30;3.00;;;;;;;4.22;96.91;93692.00;5110271;28;21010;-76
2021/01/26 07:58:16;;;;;;;7.93;4.87;;;;;;;4.16;97.07;93703.69;5110055;28;20846;-76
2021/01/26 08:00:46;;;;;;;6.97;4.20;;;;;;;3.97;97.25;93711.25;5110277;28;20443;-76
2021/01/26 08:03:12;;;;;;;7.00;4.63;;;;;;;3.69;98.63;93713.41;5110392;28;20449;-76
2021/01/26 08:05:45;;;;;;;7.43;5.17;;;;;;;3.60;99.17;93714.13;5110026;28;20443;-76
2021/01/26 08:08:20;;;;;;;3.30;3.00;;;;;;;3.46;100.00;93723.88;5041011;28;20470;-76
2021/01/26 08:11:04;;;;;;;2.53;2.20;;;;;;;3.37;100.00;93730.59;5109949;28;20435;-76
2021/01/26 08:13:31;;;;;;;2.70;2.50;;;;;;;3.23;100.00;93733.41;5110084;28;20446;-76
2021/01/26 08:16:11;;;;;;;2.80;2.60;;;;;;;3.16;100.00;93727.00;5110039;28;20442;-75
2021/01/26 08:18:39;;;;;;;5.33;3.37;;;;;;;3.10;100.00;93749.84;5057455;28;20447;-76
2021/01/26 08:21:36;;;;;;;4.10;3.60;;;;;;;3.04;100.00;93745.13;5057718;28;20462;-75
2021/01/26 08:24:15;;;;;;;10.82;6.13;;;;;;;3.07;100.00;93746.66;5109864;28;20438;-75
2021/01/26 08:26:43;;;;;;;2.90;2.70;;;;;;;3.01;100.00;93758.31;5109557;28;20209;-75
2021/01/26 08:29:10;;;;;;;2.70;2.40;;;;;;;2.97;100.00;93762.09;5109607;28;20475;-76
2021/01/26 08:31:39;;;;;;;6.63;2.90;;;;;;;2.94;100.00;93756.31;5090732;28;20435;-75
2021/01/26 08:34:37;;;;;;;4.00;3.60;;;;;;;2.92;100.00;93765.94;5109924;28;20442;-76
2021/01/26 08:37:42;;;;;;;4.10;3.67;;;;;;;2.84;100.00;93765.66;5090604;28;20477;-75
2021/01/26 08:40:11;;;;;;;3.23;2.93;;;;;;;2.83;100.00;93775.19;5101931;28;20879;-75
2021/01/26 08:42:55;;;;;;;4.27;3.33;;;;;;;2.92;100.00;93759.00;5095763;28;20446;-75
2021/01/26 08:45:53;;;;;;;5.00;3.00;;;;;;;2.91;100.00;93767.72;5033282;28;20450;-75
2021/01/26 08:48:30;;;;;;;9.73;6.17;;;;;;;2.88;100.00;93770.50;5033319;28;20508;-75
2021/01/26 08:51:05;;;;;;;12.77;7.67;;;;;;;2.99;100.00;93774.91;5033270;28;20472;-76
2021/01/26 08:53:35;;;;;;;6.70;6.03;;;;;;;2.97;100.00;93780.22;5033161;28;20449;-75
2021/01/26 08:56:12;;;;;;;13.23;6.97;;;;;;;3.06;100.00;93782.13;5033265;28;20501;-76
2021/01/26 08:58:42;;;;;;;5.10;4.20;;;;;;;3.03;100.00;93786.72;5033170;28;20441;-76
2021/01/26 09:01:12;;;;;;;7.77;5.23;;;;;;;3.12;100.00;93793.81;5033182;28;20447;-76
2021/01/26 09:03:42;;;;;;;8.37;4.93;;;;;;;3.13;100.00;93786.84;4983977;28;20493;-76
2021/01/26 09:06:13;;;;;;;7.13;4.63;;;;;;;3.07;100.00;93794.13;5033070;28;20946;-77
2021/01/26 09:08:53;;;;;;;4.40;3.70;;;;;;;3.07;100.00;93778.59;5032888;28;20485;-76
2021/01/26 09:11:38;;;;;;;4.70;3.43;;;;;;;3.01;100.00;93775.63;5000448;28;20469;-76
2021/01/26 09:14:27;;;;;;;8.83;4.20;;;;;;;3.05;100.00;93784.81;5033212;28;20441;-76
2021/01/26 09:16:59;;;;;;;3.83;3.53;;;;;;;2.97;100.00;93782.81;5032799;28;20958;-76
2021/01/26 09:19:29;;;;;;;5.17;3.90;;;;;;;2.95;100.00;93781.28;5032871;28;20965;-76
2021/01/26 09:21:56;;;;;;;5.83;2.10;;;;;;;2.85;100.00;93788.88;5048704;28;20447;-76
2021/01/26 09:24:25;;;;;;;4.27;3.87;;;;;;;2.96;100.00;93798.47;5094944;28;20450;-77
2021/01/26 09:26:52;;;;;;;4.20;3.80;;;;;;;2.86;100.00;93798.28;5094957;28;20542;-77
2021/01/26 09:29:29;;;;;;;5.23;4.13;;;;;;;2.80;100.00;93796.16;5094795;28;20483;-76
2021/01/26 09:31:57;;;;;;;8.40;5.20;;;;;;;2.78;100.00;93798.84;5059556;28;20439;-76
2021/01/26 09:34:26;;;;;;;9.83;4.93;;;;;;;2.75;100.00;93806.84;5094890;28;20876;-76
2021/01/26 09:37:12;;;;;;;8.77;4.87;;;;;;;2.71;100.00;93802.00;5094980;28;20454;-76
2021/01/26 09:39:38;;;;;;;6.93;3.93;;;;;;;2.54;100.00;93790.25;5095152;28;20476;-76
2021/01/26 09:42:26;;;;;;;9.70;5.30;;;;;;;2.59;100.00;93813.22;5094885;28;20439;-76
2021/01/26 09:44:57;;;;;;;5.60;4.25;;;;;;;2.57;100.00;93810.75;4983060;28;20442;-76
2021/01/26 09:47:24;;;;;;;9.17;5.90;;;;;;;2.54;100.00;93815.31;5032186;28;20207;-76
2021/01/26 09:49:50;;;;;;;24.70;10.03;;;;;;;2.56;100.00;93808.25;5032586;28;20505;-76
2021/01/26 09:52:19;;;;;;;14.20;6.80;;;;;;;2.56;100.00;93814.25;5031647;28;20453;-76
2021/01/26 09:54:46;;;;;;;10.33;6.73;;;;;;;2.59;100.00;93824.41;5032500;28;20548;-76
2021/01/26 09:57:17;;;;;;;10.07;5.43;;;;;;;2.49;100.00;93824.22;5033010;28;20457;-76
2021/01/26 09:59:45;;;;;;;7.97;5.33;;;;;;;2.52;100.00;93814.59;5032928;28;20454;-76
2021/01/26 10:02:15;;;;;;;4.80;4.00;;;;;;;2.43;100.00;93823.84;5032612;28;20442;-76
2021/01/26 10:04:44;;;;;;;4.07;2.90;;;;;;;2.39;100.00;93818.06;5032656;28;20446;-80
2021/01/26 10:07:14;;;;;;;4.10;3.80;;;;;;;2.37;100.00;93821.69;5033048;28;20446;-77
2021/01/26 10:09:41;;;;;;;6.05;4.75;;;;;;;2.42;100.00;93827.38;5032273;28;20539;-77
2021/01/26 10:12:26;;;;;;;12.97;8.47;;;;;;;2.43;100.00;93821.25;5032592;28;20211;-77
2021/01/26 10:15:10;;;;;;;7.37;6.03;;;;;;;2.40;100.00;93819.72;5032315;28;20474;-77
2021/01/26 10:17:51;;;;;;;5.47;4.93;;;;;;;2.45;100.00;93817.63;5032400;28;20453;-76
2021/01/26 10:20:27;;;;;;;5.90;4.90;;;;;;;2.43;100.00;93813.50;5032147;28;20435;-76
2021/01/26 10:23:02;;;;;;;5.03;4.00;;;;;;;2.46;100.00;93829.63;5092529;28;20814;-77
2021/01/26 10:25:29;;;;;;;8.60;7.32;;;;;;;2.57;100.00;93818.50;5095111;28;20435;-74
2021/01/26 10:28:06;;;;;;;7.63;4.60;;;;;;;2.44;100.00;93826.31;5094846;28;20205;-76
2021/01/26 10:30:47;;;;;;;8.88;5.03;;;;;;;2.39;100.00;93828.41;5094352;28;20466;-77
2021/01/26 10:33:33;;;;;;;9.70;5.65;;;;;;;2.38;100.00;93826.75;5094503;28;20197;-77
2021/01/26 10:36:21;;;;;;;9.47;5.77;;;;;;;2.41;100.00;93830.91;5094526;28;20190;-77
2021/01/26 10:38:49;;;;;;;8.90;5.80;;;;;;;2.41;100.00;93823.94;5094840;28;20479;-77
2021/01/26 10:41:23;;;;;;;6.30;4.13;;;;;;;2.41;100.00;93830.91;5094235;28;20209;-77
2021/01/26 10:44:01;;;;;;;7.17;5.57;;;;;;;2.34;100.00;93824.50;5094311;28;20202;-77
2021/01/26 10:46:30;;;;;;;10.77;7.17;;;;;;;2.38;100.00;93836.28;5094287;28;20908;-77
2021/01/26 10:49:15;;;;;;;7.67;5.90;;;;;;;2.39;100.00;93828.41;5093956;28;20502;-77
2021/01/26 10:51:43;;;;;;;8.15;5.65;;;;;;;2.33;100.00;93826.25;5094089;28;20781;-77
2021/01/26 10:54:10;;;;;;;4.40;4.00;;;;;;;2.35;100.00;93832.16;5093896;28;20201;-77
2021/01/26 10:56:36;;;;;;;9.40;6.22;;;;;;;2.25;100.00;93836.28;5093957;28;20193;-77
2021/01/26 10:59:04;;;;;;;7.22;4.45;;;;;;;2.20;100.00;93838.38;5094245;28;20201;-77
2021/01/26 11:01:31;;;;;;;11.32;6.47;;;;;;;2.28;100.00;93840.44;5041897;28;20197;-77
2021/01/26 11:03:58;;;;;;;10.75;6.47;;;;;;;2.28;100.00;93843.84;5093826;28;20208;-78
2021/01/26 11:06:26;;;;;;;8.23;5.33;;;;;;;2.30;100.00;93851.50;5094195;28;20258;-78
2021/01/26 11:08:52;;;;;;;4.00;3.67;;;;;;;2.22;100.00;93846.88;5093436;28;20508;-78
2021/01/26 11:11:22;;;;;;;5.67;4.47;;;;;;;2.23;100.00;93852.88;5093455;28;20190;-78
2021/01/26 11:13:49;;;;;;;8.00;4.47;;;;;;;2.23;100.00;93858.03;5093750;28;20435;-78
2021/01/26 11:16:15;;;;;;;5.93;3.87;;;;;;;2.21;100.00;93855.56;5093792;28;20963;-80
2021/01/26 11:18:42;;;;;;;9.30;4.77;;;;;;;2.12;100.00;93872.56;5094199;28;20446;-79
2021/01/26 11:21:11;;;;;;;6.13;4.20;;;;;;;2.16;100.00;93875.75;5093323;28;20447;-78
2021/01/26 11:23:38;;;;;;;5.22;4.00;;;;;;;2.18;100.00;93873.91;5093690;28;20534;-78
2021/01/26 11:26:05;;;;;;;8.50;5.65;;;;;;;2.27;100.00;93877.59;5094099;28;20250;-79
2021/01/26 11:28:33;;;;;;;6.55;5.40;;;;;;;2.32;100.00;93886.72;5093453;28;20449;-79
2021/01/26 11:31:00;;;;;;;8.18;6.40;;;;;;;2.36;100.00;93880.41;5093214;28;20201;-78
2021/01/26 11:33:26;;;;;;;7.63;5.30;;;;;;;2.39;100.00;93882.78;5093582;28;20199;-78
2021/01/26 11:35:54;;;;;;;12.10;7.57;;;;;;;2.39;100.00;93875.00;5093513;28;20431;-77
2021/01/26 11:38:20;;;;;;;5.87;4.80;;;;;;;2.35;100.00;93878.75;5057578;28;20539;-77
2021/01/26 11:40:47;;;;;;;6.05;5.00;;;;;;;2.36;100.00;93871.81;5093980;28;20435;-77
2021/01/26 11:43:14;;;;;;;105.77;52.00;;;;;;;3.51;100.00;93883.41;5093413;28;20625;-78
2021/01/26 11:45:42;;;;;;;6.53;5.70;;;;;;;3.03;100.00;93883.41;5093627;28;20440;-78
2021/01/26 11:48:09;;;;;;;6.97;6.27;;;;;;;2.90;99.23;93885.25;5093673;28;21071;-78
2021/01/26 11:50:36;;;;;;;18.10;6.37;;;;;;;2.87;98.67;93885.44;5093030;28;20524;-77
2021/01/26 11:53:04;;;;;;;6.33;5.53;;;;;;;2.76;98.81;93877.59;5093398;28;21026;-78
2021/01/26 11:55:33;;;;;;;5.45;4.72;;;;;;;2.63;98.76;93888.00;5093380;28;20519;-77
2021/01/26 11:58:01;;;;;;;6.20;4.60;;;;;;;2.63;99.32;93887.19;5093729;28;20432;-77
2021/01/26 12:00:29;;;;;;;7.47;5.60;;;;;;;2.64;99.75;93881.91;5093314;28;20931;-79
2021/01/26 12:02:55;;;;;;;11.00;5.80;;;;;;;2.66;99.64;93892.97;5094711;28;21537;-78
2021/01/26 12:05:24;;;;;;;6.70;5.47;;;;;;;2.69;99.37;93895.34;5073267;28;20425;-79
2021/01/26 12:07:51;;;;;;;8.30;6.65;;;;;;;2.69;99.67;93891.94;5089914;28;20476;-78
2021/01/26 12:10:19;;;;;;;11.87;6.97;;;;;;;2.72;99.32;93904.66;5089409;28;20448;-78
2021/01/26 12:12:45;;;;;;;7.37;6.50;;;;;;;2.83;99.46;93903.91;5039004;28;20459;-79
2021/01/26 12:15:17;;;;;;;14.03;7.43;;;;;;;2.92;99.12;93896.31;5074656;28;20452;-79
2021/01/26 12:17:43;;;;;;;6.73;5.77;;;;;;;2.84;98.78;93901.19;5076478;28;20444;-79
2021/01/26 12:20:11;;;;;;;12.07;5.77;;;;;;;2.82;98.83;93903.06;5076643;28;20451;-78
2021/01/26 12:22:37;;;;;;;12.32;8.10;;;;;;;2.84;98.72;93885.66;5077271;28;20484;-78
2021/01/26 12:25:04;;;;;;;6.77;6.00;;;;;;;2.87;98.74;93898.38;5076265;28;20343;-77
2021/01/26 12:27:31;;;;;;;9.80;5.95;;;;;;;2.89;98.55;93904.31;5092792;28;20454;-78
2021/01/26 12:29:57;;;;;;;13.43;10.80;;;;;;;3.36;100.00;93902.66;5096610;28;20221;-79
2021/01/26 12:32:24;;;;;;;20.30;12.38;;;;;;;3.37;100.00;93904.31;5096945;28;20446;-79
2021/01/26 12:34:51;;;;;;;24.10;13.63;;;;;;;3.40;100.00;93898.91;5096707;28;20196;-79
2021/01/26 12:37:19;;;;;;;22.80;20.40;;;;;;;3.38;98.08;93904.19;5096766;28;20442;-77
2021/01/26 12:39:45;;;;;;;20.20;17.10;;;;;;;3.37;97.79;93905.13;5096961;28;21009;-77
2021/01/26 12:42:12;;;;;;;18.23;12.50;;;;;;;3.42;97.40;93904.78;5097124;28;20435;-78
2021/01/26 12:44:38;;;;;;;18.63;14.73;;;;;;;3.43;96.25;93903.84;5043979;28;20485;-79